T/t Next Chapter — KDL9487 — position and weather

sailwx.info

Track history (hours):
 
Tides and Currents Weather Stations Pressure Air Temp Water Temp Dewpoint Dewpoint Depression Visibility Wind Speed Wind Dir Waves Ship Positions

T/t Next Chapter

Last reported at 2018-Jun-20 16:05 UTC. Time now 2018-Jul-22 21:42 UTC.
Position N 54°19' W 130°19'.
Warning: this ship's position is 32 days out of date.

Type: High speed craft. MMSI: 338242537.

Date/timePositionNaut miles runAvg speedWind from/ knotsBaromVisibWave heightAir tempDewpointWater temp
2018-Jun-20 16:05N 54°19' W 130°19'0 0.9
2018-Jun-20 16:00N 54°19' W 130°19'0 0.0
2018-Jun-20 02:20N 54°19' W 130°19'3 8.3
2018-Jun-20 02:00N 54°17' W 130°22'1734.6
2018-Jun-20 01:30N 54°00' W 130°14'5 9.7
2018-Jun-20 01:00N 53°56' W 130°16'1 1.5
2018-Jun-20 00:29N 53°56' W 130°15'1 1.4
2018-Jun-20 00:00N 53°57' W 130°14'136 4.8
2018-Jun-18 19:59N 52°05' W 128°06'1020.8
2018-Jun-18 19:30N 51°57' W 127°55'1 2.1
2018-Jun-18 19:00N 51°56' W 127°54'2 3.5
2018-Jun-18 18:24N 51°58' W 127°55'1 1.4
2018-Jun-18 17:58N 51°58' W 127°54'1 1.5
2018-Jun-18 17:30N 51°58' W 127°55'1 1.8
2018-Jun-18 16:57N 51°57' W 127°54'1 1.8
2018-Jun-18 16:30N 51°56' W 127°54'0 0.9
2018-Jun-18 16:00N 51°55' W 127°54'1 0.7
2018-Jun-18 14:20N 51°56' W 127°53'0 0.0
2018-Jun-18 03:33N 51°56' W 127°53'0 0.7
2018-Jun-18 03:30N 51°56' W 127°53'64 9.2
2018-Jun-17 20:29N 50°54' W 127°23'85 3.6
2018-Jun-16 21:10N 50°17' W 125°23'3 9.6
2018-Jun-16 20:50N 50°13' W 125°23'4 9.0
2018-Jun-16 20:25N 50°10' W 125°22'2 5.5
2018-Jun-16 19:59N 50°07' W 125°21'1730.3
2018-Jun-16 19:26N 49°57' W 125°01'3 5.4
2018-Jun-16 18:57N 49°54' W 124°59'0 0.5
2018-Jun-16 18:23N 49°55' W 124°59'3 7.8
2018-Jun-16 18:00N 49°53' W 124°55'  
Track history (hours):
 
Tides and Currents Weather Stations Pressure Air Temp Water Temp Dewpoint Dewpoint Depression Visibility Wind Speed Wind Dir Waves Ship Positions

T/t Next Chapter

Last reported at 2018-Jun-20 16:05 UTC. Time now 2018-Jul-22 21:42 UTC.
Position N 54°19' W 130°19'.
Warning: this ship's position is 32 days out of date.

Type: High speed craft. MMSI: 338242537.

Date/timePositionNaut miles runAvg speedWind from/ knotsBaromVisibWave heightAir tempDewpointWater temp
2018-Jun-20 16:05N 54°19' W 130°19'0 0.9
2018-Jun-20 16:00N 54°19' W 130°19'0 0.0
2018-Jun-20 02:20N 54°19' W 130°19'3 8.3
2018-Jun-20 02:00N 54°17' W 130°22'1734.6
2018-Jun-20 01:30N 54°00' W 130°14'5 9.7
2018-Jun-20 01:00N 53°56' W 130°16'1 1.5
2018-Jun-20 00:29N 53°56' W 130°15'1 1.4
2018-Jun-20 00:00N 53°57' W 130°14'136 4.8
2018-Jun-18 19:59N 52°05' W 128°06'1020.8
2018-Jun-18 19:30N 51°57' W 127°55'1 2.1
2018-Jun-18 19:00N 51°56' W 127°54'2 3.5
2018-Jun-18 18:24N 51°58' W 127°55'1 1.4
2018-Jun-18 17:58N 51°58' W 127°54'1 1.5
2018-Jun-18 17:30N 51°58' W 127°55'1 1.8
2018-Jun-18 16:57N 51°57' W 127°54'1 1.8
2018-Jun-18 16:30N 51°56' W 127°54'0 0.9
2018-Jun-18 16:00N 51°55' W 127°54'1 0.7
2018-Jun-18 14:20N 51°56' W 127°53'0 0.0
2018-Jun-18 03:33N 51°56' W 127°53'0 0.7
2018-Jun-18 03:30N 51°56' W 127°53'64 9.2
2018-Jun-17 20:29N 50°54' W 127°23'85 3.6
2018-Jun-16 21:10N 50°17' W 125°23'3 9.6
2018-Jun-16 20:50N 50°13' W 125°23'4 9.0
2018-Jun-16 20:25N 50°10' W 125°22'2 5.5
2018-Jun-16 19:59N 50°07' W 125°21'1730.3
2018-Jun-16 19:26N 49°57' W 125°01'3 5.4
2018-Jun-16 18:57N 49°54' W 124°59'0 0.5
2018-Jun-16 18:23N 49°55' W 124°59'3 7.8
2018-Jun-16 18:00N 49°53' W 124°55'  

Dump ship's entire track history